Time,TemperatureF,DewpointF,PressureIn,WindDirection,WindDirectionDegrees,WindSpeedMPH,WindSpeedGustMPH,Humidity,HourlyPrecipIn,Conditions,Clouds,dailyrainin,SoftwareType,DateUTC
2013-02-17 00:02:00,27.6,22.5,29.98,SE,127,0.0,6.0,81,0.00,,,0.00,Wunderground v.1.15,2013-02-17 06:02:00,
2013-02-17 00:07:00,27.5,22.4,29.98,SE,124,0.0,6.0,81,0.00,,,0.00,Wunderground v.1.15,2013-02-17 06:07:00,
2013-02-17 00:12:00,27.4,22.3,29.98,ESE,120,0.0,6.0,81,0.00,,,0.00,Wunderground v.1.15,2013-02-17 06:12:00,
2013-02-17 00:18:00,27.4,22.3,29.98,SE,143,0.0,6.0,81,0.00,,,0.00,Wunderground v.1.15,2013-02-17 06:18:00,
2013-02-17 00:23:00,27.3,22.2,29.98,ESE,113,0.0,6.0,81,0.00,,,0.00,Wunderground v.1.15,2013-02-17 06:23:00,
2013-02-17 00:28:00,27.3,22.2,29.98,East,97,0.0,6.0,81,0.00,,,0.00,Wunderground v.1.15,2013-02-17 06:28:00,
2013-02-17 00:33:00,27.3,22.2,29.98,SSE,153,0.0,6.0,81,0.00,,,0.00,Wunderground v.1.15,2013-02-17 06:33:00,
2013-02-17 00:38:00,27.3,22.2,29.98,SSE,154,0.0,6.0,81,0.00,,,0.00,Wunderground v.1.15,2013-02-17 06:38:00,
2013-02-17 00:43:00,27.2,22.1,29.98,SSE,147,0.0,6.0,81,0.00,,,0.00,Wunderground v.1.15,2013-02-17 06:43:00,
2013-02-17 00:49:00,27.1,22.0,29.98,SSE,147,0.0,6.0,81,0.00,,,0.00,Wunderground v.1.15,2013-02-17 06:49:00,
2013-02-17 00:54:00,27.0,21.9,29.98,SSE,147,0.0,6.0,81,0.00,,,0.00,Wunderground v.1.15,2013-02-17 06:54:00,
2013-02-17 00:59:00,26.9,22.1,29.98,ESE,122,0.0,6.0,82,0.00,,,0.00,Wunderground v.1.15,2013-02-17 06:59:00,
2013-02-17 01:05:00,26.8,22.0,29.98,SSE,149,0.0,6.0,82,0.00,,,0.00,Wunderground v.1.15,2013-02-17 07:05:00,
2013-02-17 01:11:00,26.7,21.9,29.98,SSE,151,0.0,6.0,82,0.00,,,0.00,Wunderground v.1.15,2013-02-17 07:11:00,
2013-02-17 01:16:00,26.6,21.8,29.98,SSE,151,0.0,6.0,82,0.00,,,0.00,Wunderground v.1.15,2013-02-17 07:16:00,
2013-02-17 01:22:00,26.5,21.7,29.98,SSE,151,0.0,6.0,82,0.00,,,0.00,Wunderground v.1.15,2013-02-17 07:22:00,
2013-02-17 01:27:00,26.2,21.5,29.98,SSE,151,0.0,6.0,82,0.00,,,0.00,Wunderground v.1.15,2013-02-17 07:27:00,
2013-02-17 01:32:00,26.0,21.3,29.98,ESE,114,0.0,6.0,82,0.00,,,0.00,Wunderground v.1.15,2013-02-17 07:32:00,
2013-02-17 01:38:00,25.9,21.4,29.98,ESE,114,0.0,6.0,83,0.00,,,0.00,Wunderground v.1.15,2013-02-17 07:38:00,
2013-02-17 01:43:00,25.8,21.3,29.98,ESE,114,0.0,6.0,83,0.00,,,0.00,Wunderground v.1.15,2013-02-17 07:43:00,
2013-02-17 01:49:00,25.5,21.1,29.99,ESE,114,0.0,6.0,83,0.00,,,0.00,Wunderground v.1.15,2013-02-17 07:49:00,
2013-02-17 01:54:00,25.4,21.0,29.98,ESE,114,0.0,6.0,83,0.00,,,0.00,Wunderground v.1.15,2013-02-17 07:54:00,
2013-02-17 01:59:00,25.5,21.3,29.98,ESE,114,0.0,6.0,84,0.00,,,0.00,Wunderground v.1.15,2013-02-17 07:59:00,
2013-02-17 02:05:00,25.8,21.6,29.98,ESE,105,0.0,6.0,84,0.00,,,0.00,Wunderground v.1.15,2013-02-17 08:05:00,
2013-02-17 02:10:00,26.0,22.0,29.98,ESE,105,0.0,3.0,83,0.00,,,0.00,weatherlink.com 1.10,2013-02-17 08:10:00,
2013-02-17 02:16:00,26.1,21.6,29.98,ESE,105,0.0,6.0,83,0.00,,,0.00,Wunderground v.1.15,2013-02-17 08:16:00,
2013-02-17 02:21:00,26.1,21.4,29.98,ESE,105,0.0,6.0,82,0.00,,,0.00,Wunderground v.1.15,2013-02-17 08:21:00,
2013-02-17 02:26:00,26.2,21.5,29.98,ESE,105,0.0,6.0,82,0.00,,,0.00,Wunderground v.1.15,2013-02-17 08:26:00,
2013-02-17 02:32:00,26.2,21.5,29.98,ESE,105,0.0,6.0,82,0.00,,,0.00,Wunderground v.1.15,2013-02-17 08:32:00,
2013-02-17 02:37:00,26.0,21.3,29.97,ESE,105,0.0,6.0,82,0.00,,,0.00,Wunderground v.1.15,2013-02-17 08:37:00,
2013-02-17 02:42:00,25.8,21.1,29.97,ESE,105,0.0,6.0,82,0.00,,,0.00,Wunderground v.1.15,2013-02-17 08:42:00,
2013-02-17 02:48:00,25.7,21.0,29.97,ESE,104,0.0,6.0,82,0.00,,,0.00,Wunderground v.1.15,2013-02-17 08:48:00,
2013-02-17 02:53:00,25.6,20.9,29.97,ESE,105,0.0,6.0,82,0.00,,,0.00,Wunderground v.1.15,2013-02-17 08:53:00,
2013-02-17 02:58:00,25.6,20.9,29.97,ESE,105,0.0,6.0,82,0.00,,,0.00,Wunderground v.1.15,2013-02-17 08:58:00,
2013-02-17 03:04:00,25.6,20.9,29.97,ESE,105,0.0,6.0,82,0.00,,,0.00,Wunderground v.1.15,2013-02-17 09:04:00,
2013-02-17 03:10:00,25.4,21.0,29.97,ESE,105,0.0,0.0,82,0.00,,,0.00,weatherlink.com 1.10,2013-02-17 09:10:00,
2013-02-17 03:16:00,25.1,20.4,29.97,ESE,104,0.0,6.0,82,0.00,,,0.00,Wunderground v.1.15,2013-02-17 09:16:00,
2013-02-17 03:21:00,24.9,20.2,29.97,ESE,104,0.0,6.0,82,0.00,,,0.00,Wunderground v.1.15,2013-02-17 09:21:00,
2013-02-17 03:26:00,24.7,20.0,29.97,ESE,104,0.0,0.0,83,0.00,,,0.00,weatherlink.com 1.10,2013-02-17 09:26:00,
2013-02-17 03:32:00,24.4,20.0,29.97,ESE,104,0.0,6.0,83,0.00,,,0.00,Wunderground v.1.15,2013-02-17 09:32:00,
2013-02-17 03:37:00,24.2,19.8,29.97,ESE,104,0.0,6.0,83,0.00,,,0.00,Wunderground v.1.15,2013-02-17 09:37:00,
2013-02-17 03:43:00,23.8,19.0,29.96,ESE,104,0.0,0.0,83,0.00,,,0.00,weatherlink.com 1.10,2013-02-17 09:43:00,
2013-02-17 03:48:00,23.6,19.5,29.96,ESE,104,0.0,6.0,84,0.00,,,0.00,Wunderground v.1.15,2013-02-17 09:48:00,
2013-02-17 03:53:00,23.6,19.5,29.96,ESE,104,0.0,6.0,84,0.00,,,0.00,Wunderground v.1.15,2013-02-17 09:53:00,
2013-02-17 03:58:00,23.5,19.4,29.96,ESE,104,0.0,6.0,84,0.00,,,0.00,Wunderground v.1.15,2013-02-17 09:58:00,
2013-02-17 04:04:00,23.4,19.6,29.96,ESE,104,0.0,6.0,85,0.00,,,0.00,Wunderground v.1.15,2013-02-17 10:04:00,
2013-02-17 04:09:00,23.4,19.6,29.96,ESE,104,0.0,6.0,85,0.00,,,0.00,Wunderground v.1.15,2013-02-17 10:09:00,
2013-02-17 04:15:00,23.8,19.9,29.95,ESE,112,0.0,6.0,85,0.00,,,0.00,Wunderground v.1.15,2013-02-17 10:15:00,
2013-02-17 04:20:00,24.0,20.1,29.95,ESE,119,0.0,6.0,85,0.00,,,0.00,Wunderground v.1.15,2013-02-17 10:20:00,
2013-02-17 04:25:00,24.3,20.2,29.95,ESE,112,0.0,6.0,84,0.00,,,0.00,Wunderground v.1.15,2013-02-17 10:25:00,
2013-02-17 04:31:00,24.5,20.4,29.95,ESE,110,0.0,6.0,84,0.00,,,0.00,Wunderground v.1.15,2013-02-17 10:31:00,
2013-02-17 04:37:00,24.7,20.3,29.95,SE,136,0.0,6.0,83,0.00,,,0.00,Wunderground v.1.15,2013-02-17 10:37:00,
2013-02-17 04:42:00,24.8,20.0,29.95,SE,139,0.0,4.0,83,0.00,,,0.00,weatherlink.com 1.10,2013-02-17 10:42:00,
2013-02-17 04:48:00,24.9,20.2,29.95,SE,140,0.0,6.0,82,0.00,,,0.00,Wunderground v.1.15,2013-02-17 10:48:00,
2013-02-17 04:54:00,24.8,20.1,29.94,SE,139,0.0,6.0,82,0.00,,,0.00,Wunderground v.1.15,2013-02-17 10:54:00,
2013-02-17 04:59:00,24.8,20.1,29.94,SSW,194,0.0,6.0,82,0.00,,,0.00,Wunderground v.1.15,2013-02-17 10:59:00,
2013-02-17 05:05:00,24.8,20.1,29.94,SE,135,0.0,6.0,82,0.00,,,0.00,Wunderground v.1.15,2013-02-17 11:05:00,
2013-02-17 05:11:00,25.0,20.3,29.94,ESE,119,1.0,6.0,82,0.00,,,0.00,Wunderground v.1.15,2013-02-17 11:11:00,
2013-02-17 05:16:00,25.1,20.4,29.94,SSE,154,1.0,6.0,82,0.00,,,0.00,Wunderground v.1.15,2013-02-17 11:16:00,
2013-02-17 05:22:00,25.1,20.1,29.94,SSE,156,0.0,6.0,81,0.00,,,0.00,Wunderground v.1.15,2013-02-17 11:22:00,
2013-02-17 05:28:00,25.2,20.5,29.94,South,173,1.0,6.0,82,0.00,,,0.00,Wunderground v.1.15,2013-02-17 11:28:00,
2013-02-17 05:33:00,25.3,20.3,29.94,SSE,147,2.0,6.0,81,0.00,,,0.00,Wunderground v.1.15,2013-02-17 11:33:00,
2013-02-17 05:38:00,25.4,20.4,29.94,SSE,156,1.0,6.0,81,0.00,,,0.00,Wunderground v.1.15,2013-02-17 11:38:00,
2013-02-17 05:44:00,25.4,20.4,29.94,SE,143,1.0,6.0,81,0.00,,,0.00,Wunderground v.1.15,2013-02-17 11:44:00,
2013-02-17 05:50:00,25.5,20.5,29.93,SE,139,1.0,6.0,81,0.00,,,0.00,Wunderground v.1.15,2013-02-17 11:50:00,
2013-02-17 05:55:00,25.5,20.5,29.93,ESE,120,1.0,6.0,81,0.00,,,0.00,Wunderground v.1.15,2013-02-17 11:55:00,
2013-02-17 06:01:00,25.5,20.5,29.93,ESE,122,2.0,3.0,81,0.00,,,0.00,Wunderground v.1.15,2013-02-17 12:01:00,
2013-02-17 06:07:00,25.5,20.5,29.93,South,173,1.0,6.0,81,0.00,,,0.00,Wunderground v.1.15,2013-02-17 12:07:00,
2013-02-17 06:12:00,25.4,20.4,29.93,SE,140,1.0,6.0,81,0.00,,,0.00,Wunderground v.1.15,2013-02-17 12:12:00,
2013-02-17 06:17:00,25.4,20.4,29.93,ESE,111,1.0,6.0,81,0.00,,,0.00,Wunderground v.1.15,2013-02-17 12:17:00,
2013-02-17 06:23:00,25.4,20.4,29.93,SE,136,1.0,6.0,81,0.00,,,0.00,Wunderground v.1.15,2013-02-17 12:23:00,
2013-02-17 06:28:00,25.4,20.4,29.93,ESE,122,2.0,6.0,81,0.00,,,0.00,Wunderground v.1.15,2013-02-17 12:28:00,
2013-02-17 06:34:00,25.4,20.4,29.93,SSE,149,3.0,7.0,81,0.00,,,0.00,Wunderground v.1.15,2013-02-17 12:34:00,
2013-02-17 06:40:00,25.5,20.2,29.92,ENE,75,3.0,3.0,80,0.00,,,0.00,Wunderground v.1.15,2013-02-17 12:40:00,
2013-02-17 06:45:00,25.4,20.1,29.92,South,173,2.0,6.0,80,0.00,,,0.00,Wunderground v.1.15,2013-02-17 12:45:00,
2013-02-17 06:50:00,25.5,20.2,29.92,South,178,3.0,6.0,80,0.00,,,0.00,Wunderground v.1.15,2013-02-17 12:50:00,
2013-02-17 06:56:00,25.4,20.1,29.91,SSE,150,2.0,6.0,80,0.00,,,0.00,Wunderground v.1.15,2013-02-17 12:56:00,
2013-02-17 07:01:00,25.3,20.0,29.91,SSE,154,0.0,5.0,80,0.00,,,0.00,weatherlink.com 1.10,2013-02-17 13:01:00,
2013-02-17 07:07:00,25.3,20.0,29.92,SSE,160,2.0,6.0,80,0.00,,,0.00,Wunderground v.1.15,2013-02-17 13:07:00,
2013-02-17 07:14:00,25.3,20.3,29.92,SE,145,3.0,6.0,81,0.00,,,0.00,Wunderground v.1.15,2013-02-17 13:14:00,
2013-02-17 07:19:00,25.3,20.0,29.91,SSE,154,4.0,6.0,80,0.00,,,0.00,Wunderground v.1.15,2013-02-17 13:19:00,
2013-02-17 07:24:00,25.3,20.3,29.92,SSW,208,3.0,6.0,81,0.00,,,0.00,Wunderground v.1.15,2013-02-17 13:24:00,
2013-02-17 07:29:00,25.4,20.1,29.91,SE,140,3.0,6.0,80,0.00,,,0.00,Wunderground v.1.15,2013-02-17 13:29:00,
2013-02-17 07:34:00,25.4,20.4,29.92,South,183,3.0,6.0,81,0.00,,,0.00,Wunderground v.1.15,2013-02-17 13:34:00,
2013-02-17 07:40:00,25.4,20.1,29.91,South,169,3.0,6.0,80,0.00,,,0.00,Wunderground v.1.15,2013-02-17 13:40:00,
2013-02-17 07:45:00,25.5,20.0,29.91,South,187,3.0,7.0,80,0.00,,,0.00,weatherlink.com 1.10,2013-02-17 13:45:00,
2013-02-17 07:51:00,25.7,20.4,29.92,South,173,3.0,7.0,80,0.00,,,0.00,Wunderground v.1.15,2013-02-17 13:51:00,
2013-02-17 07:57:00,26.0,20.7,29.91,SE,134,5.0,8.0,80,0.00,,,0.00,Wunderground v.1.15,2013-02-17 13:57:00,
2013-02-17 08:02:00,26.5,20.9,29.92,SSW,192,5.0,6.0,79,0.00,,,0.00,Wunderground v.1.15,2013-02-17 14:02:00,
2013-02-17 08:07:00,26.9,21.3,29.91,SE,135,6.0,10.0,79,0.00,,,0.00,Wunderground v.1.15,2013-02-17 14:07:00,
2013-02-17 08:12:00,27.2,21.2,29.91,SSE,159,6.0,9.0,78,0.00,,,0.00,Wunderground v.1.15,2013-02-17 14:12:00,
2013-02-17 08:17:00,27.5,21.5,29.91,SSE,149,7.0,9.0,78,0.00,,,0.00,Wunderground v.1.15,2013-02-17 14:17:00,
2013-02-17 08:23:00,27.9,21.6,29.91,SSE,149,6.0,6.0,77,0.00,,,0.00,Wunderground v.1.15,2013-02-17 14:23:00,
2013-02-17 08:28:00,28.3,22.0,29.91,SSE,158,7.0,9.0,77,0.00,,,0.00,Wunderground v.1.15,2013-02-17 14:28:00,
2013-02-17 08:34:00,28.6,22.0,29.91,SE,129,6.0,8.0,76,0.00,,,0.00,Wunderground v.1.15,2013-02-17 14:34:00,
2013-02-17 08:40:00,28.9,22.0,29.91,SE,142,6.0,6.0,75,0.00,,,0.00,Wunderground v.1.15,2013-02-17 14:40:00,
2013-02-17 08:45:00,29.2,22.0,29.91,SE,145,10.0,12.0,75,0.00,,,0.00,weatherlink.com 1.10,2013-02-17 14:45:00,
2013-02-17 08:51:00,29.6,22.6,29.91,SE,146,7.0,7.0,75,0.00,,,0.00,Wunderground v.1.15,2013-02-17 14:51:00,
2013-02-17 08:56:00,30.1,22.8,29.90,SE,144,6.0,10.0,74,0.00,,,0.00,Wunderground v.1.15,2013-02-17 14:56:00,
2013-02-17 09:01:00,30.4,22.8,29.90,South,173,6.0,6.0,73,0.00,,,0.00,Wunderground v.1.15,2013-02-17 15:01:00,
2013-02-17 09:07:00,30.7,23.1,29.90,SSE,154,7.0,10.0,73,0.00,,,0.00,Wunderground v.1.15,2013-02-17 15:07:00,
2013-02-17 09:12:00,31.0,23.0,29.90,SSE,153,7.0,9.0,72,0.00,,,0.00,Wunderground v.1.15,2013-02-17 15:12:00,
2013-02-17 09:17:00,31.4,23.4,29.90,SSE,162,6.0,9.0,72,0.00,,,0.00,Wunderground v.1.15,2013-02-17 15:17:00,
2013-02-17 09:23:00,32.1,24.1,29.90,SE,132,5.0,9.0,72,0.00,,,0.00,Wunderground v.1.15,2013-02-17 15:23:00,
2013-02-17 09:28:00,32.5,24.1,29.89,ESE,117,6.0,9.0,71,0.00,,,0.00,Wunderground v.1.15,2013-02-17 15:28:00,
2013-02-17 09:34:00,33.0,24.3,29.88,South,183,6.0,9.0,70,0.00,,,0.00,Wunderground v.1.15,2013-02-17 15:34:00,
2013-02-17 09:39:00,33.4,24.7,29.87,ESE,122,6.0,9.0,70,0.00,,,0.00,Wunderground v.1.15,2013-02-17 15:39:00,
2013-02-17 09:45:00,33.9,25.1,29.87,SSE,166,6.0,8.0,70,0.00,,,0.00,Wunderground v.1.15,2013-02-17 15:45:00,
2013-02-17 09:50:00,34.4,26.0,29.87,ESE,112,5.0,5.0,71,0.00,,,0.00,Wunderground v.1.15,2013-02-17 15:50:00,
2013-02-17 09:56:00,35.0,26.2,29.87,SE,124,4.0,6.0,70,0.00,,,0.00,Wunderground v.1.15,2013-02-17 15:56:00,
2013-02-17 10:01:00,35.5,26.3,29.87,SE,130,5.0,6.0,69,0.00,,,0.00,Wunderground v.1.15,2013-02-17 16:01:00,
2013-02-17 10:06:00,35.7,25.8,29.87,SE,137,7.0,8.0,67,0.00,,,0.00,Wunderground v.1.15,2013-02-17 16:06:00,
2013-02-17 10:12:00,36.1,26.2,29.87,SSE,160,7.0,13.0,67,0.00,,,0.01,Wunderground v.1.15,2013-02-17 16:12:00,
2013-02-17 10:18:00,36.6,27.0,29.86,ESE,122,4.0,13.0,68,0.01,,,0.01,weatherlink.com 1.10,2013-02-17 16:18:00,
2013-02-17 10:30:00,37.4,27.1,29.86,SSE,148,8.0,8.0,66,0.00,,,0.01,Wunderground v.1.15,2013-02-17 16:30:00,
2013-02-17 10:36:00,37.8,27.1,29.86,SE,128,7.0,11.0,65,0.00,,,0.01,Wunderground v.1.15,2013-02-17 16:36:00,
2013-02-17 10:42:00,38.1,27.4,29.86,SSE,161,6.0,11.0,65,0.00,,,0.01,Wunderground v.1.15,2013-02-17 16:42:00,
2013-02-17 10:47:00,38.8,28.0,29.86,ESE,116,5.0,11.0,65,0.00,,,0.01,Wunderground v.1.15,2013-02-17 16:47:00,
2013-02-17 10:52:00,39.1,27.9,29.85,SE,135,5.0,8.0,64,0.00,,,0.01,Wunderground v.1.15,2013-02-17 16:52:00,
2013-02-17 10:57:00,39.3,28.1,29.85,South,169,7.0,11.0,64,0.00,,,0.01,Wunderground v.1.15,2013-02-17 16:57:00,
2013-02-17 11:03:00,39.8,28.0,29.85,SE,146,4.0,13.0,64,0.01,,,0.01,weatherlink.com 1.10,2013-02-17 17:03:00,
2013-02-17 11:08:00,40.3,28.7,29.85,ESE,119,6.0,10.0,63,0.00,,,0.01,Wunderground v.1.15,2013-02-17 17:08:00,
2013-02-17 11:14:00,40.8,29.2,29.85,SSE,154,6.0,9.0,63,0.00,,,0.01,Wunderground v.1.15,2013-02-17 17:14:00,
2013-02-17 11:19:00,41.1,29.1,29.85,SSE,168,6.0,12.0,62,0.00,,,0.01,Wunderground v.1.15,2013-02-17 17:19:00,
2013-02-17 11:24:00,41.4,28.9,29.84,SE,141,7.0,10.0,61,0.00,,,0.01,Wunderground v.1.15,2013-02-17 17:24:00,
2013-02-17 11:30:00,41.6,29.5,29.84,SSE,164,7.0,7.0,62,0.00,,,0.01,Wunderground v.1.15,2013-02-17 17:30:00,
2013-02-17 11:35:00,42.1,30.0,29.84,South,173,6.0,7.0,62,0.00,,,0.01,Wunderground v.1.15,2013-02-17 17:35:00,
2013-02-17 11:40:00,42.6,30.9,29.83,ESE,113,4.0,4.0,63,0.00,,,0.01,Wunderground v.1.15,2013-02-17 17:40:00,
2013-02-17 11:45:00,43.3,31.1,29.83,SSE,147,4.0,11.0,62,0.00,,,0.01,Wunderground v.1.15,2013-02-17 17:45:00,
2013-02-17 11:50:00,43.4,31.0,29.83,East,92,2.0,14.0,62,0.00,,,0.01,weatherlink.com 1.10,2013-02-17 17:50:00,
2013-02-17 11:56:00,43.9,31.7,29.82,South,173,7.0,10.0,62,0.00,,,0.01,Wunderground v.1.15,2013-02-17 17:56:00,
2013-02-17 12:02:00,44.4,31.8,29.82,South,178,5.0,6.0,61,0.00,,,0.01,Wunderground v.1.15,2013-02-17 18:02:00,
2013-02-17 12:07:00,44.6,31.6,29.81,SE,124,5.0,9.0,60,0.00,,,0.01,Wunderground v.1.15,2013-02-17 18:07:00,
2013-02-17 12:13:00,44.8,31.8,29.81,SSE,160,7.0,11.0,60,0.00,,,0.01,Wunderground v.1.15,2013-02-17 18:13:00,
2013-02-17 12:18:00,45.0,31.9,29.80,South,183,8.0,11.0,60,0.00,,,0.01,Wunderground v.1.15,2013-02-17 18:18:00,
2013-02-17 12:24:00,45.4,32.3,29.80,South,178,7.0,10.0,60,0.00,,,0.01,Wunderground v.1.15,2013-02-17 18:24:00,
2013-02-17 12:29:00,45.7,32.2,29.79,South,191,7.0,10.0,59,0.00,,,0.01,Wunderground v.1.15,2013-02-17 18:29:00,
2013-02-17 12:35:00,45.9,31.9,29.78,SE,141,8.0,13.0,58,0.00,,,0.01,Wunderground v.1.15,2013-02-17 18:35:00,
2013-02-17 12:40:00,46.1,32.6,29.78,SSE,149,9.0,9.0,59,0.00,,,0.01,Wunderground v.1.15,2013-02-17 18:40:00,
2013-02-17 12:46:00,46.6,33.0,29.78,SSW,195,8.0,12.0,59,0.00,,,0.01,Wunderground v.1.15,2013-02-17 18:46:00,
2013-02-17 12:51:00,46.9,32.9,29.77,SSW,196,7.0,9.0,58,0.00,,,0.01,Wunderground v.1.15,2013-02-17 18:51:00,
2013-02-17 12:57:00,47.1,32.6,29.77,SE,146,8.0,14.0,57,0.00,,,0.01,Wunderground v.1.15,2013-02-17 18:57:00,
2013-02-17 13:02:00,47.2,33.2,29.76,SSE,168,9.0,12.0,58,0.00,,,0.01,Wunderground v.1.15,2013-02-17 19:02:00,
2013-02-17 13:07:00,47.6,33.1,29.76,SE,137,9.0,12.0,57,0.00,,,0.01,Wunderground v.1.15,2013-02-17 19:07:00,
2013-02-17 13:12:00,47.9,32.9,29.75,South,169,9.0,12.0,56,0.00,,,0.01,Wunderground v.1.15,2013-02-17 19:12:00,
2013-02-17 13:18:00,48.1,33.1,29.75,SE,142,9.0,12.0,56,0.00,,,0.01,Wunderground v.1.15,2013-02-17 19:18:00,
2013-02-17 13:23:00,48.1,33.1,29.75,South,173,9.0,13.0,56,0.00,,,0.01,Wunderground v.1.15,2013-02-17 19:23:00,
2013-02-17 13:28:00,48.5,33.5,29.74,SSE,151,9.0,13.0,56,0.00,,,0.01,Wunderground v.1.15,2013-02-17 19:28:00,
2013-02-17 13:33:00,48.8,33.8,29.74,SSW,197,8.0,12.0,56,0.00,,,0.01,Wunderground v.1.15,2013-02-17 19:33:00,
2013-02-17 13:38:00,49.0,33.5,29.73,South,173,8.0,12.0,55,0.00,,,0.01,Wunderground v.1.15,2013-02-17 19:38:00,
2013-02-17 13:45:00,49.4,34.3,29.73,South,178,8.0,14.0,56,0.00,,,0.01,Wunderground v.1.15,2013-02-17 19:45:00,
2013-02-17 13:50:00,49.7,34.2,29.72,SSW,206,8.0,8.0,55,0.00,,,0.01,Wunderground v.1.15,2013-02-17 19:50:00,
2013-02-17 13:56:00,50.0,34.0,29.72,South,183,9.0,13.0,54,0.00,,,0.01,Wunderground v.1.15,2013-02-17 19:56:00,
2013-02-17 14:01:00,50.1,34.1,29.72,SE,132,9.0,13.0,54,0.00,,,0.01,Wunderground v.1.15,2013-02-17 20:01:00,
2013-02-17 14:06:00,50.4,34.0,29.71,SSW,206,13.0,20.0,54,0.00,,,0.01,weatherlink.com 1.10,2013-02-17 20:06:00,
2013-02-17 14:12:00,50.8,34.7,29.71,SSE,168,9.0,10.0,54,0.00,,,0.01,Wunderground v.1.15,2013-02-17 20:12:00,
2013-02-17 14:18:00,51.2,34.6,29.70,SSW,192,9.0,14.0,53,0.00,,,0.01,Wunderground v.1.15,2013-02-17 20:18:00,
2013-02-17 14:24:00,51.5,34.9,29.70,SE,140,9.0,13.0,53,0.00,,,0.01,Wunderground v.1.15,2013-02-17 20:24:00,
2013-02-17 14:29:00,51.8,35.2,29.70,SSE,162,8.0,13.0,53,0.00,,,0.01,Wunderground v.1.15,2013-02-17 20:29:00,
2013-02-17 14:35:00,52.2,35.1,29.70,SSE,147,8.0,15.0,52,0.00,,,0.01,Wunderground v.1.15,2013-02-17 20:35:00,
2013-02-17 14:40:00,52.6,35.5,29.69,SW,229,8.0,8.0,52,0.00,,,0.01,Wunderground v.1.15,2013-02-17 20:40:00,
2013-02-17 14:45:00,52.8,35.2,29.69,South,183,9.0,18.0,51,0.00,,,0.01,Wunderground v.1.15,2013-02-17 20:45:00,
2013-02-17 14:51:00,52.8,35.0,29.69,South,189,0.0,18.0,51,0.00,,,0.01,weatherlink.com 1.10,2013-02-17 20:51:00,
2013-02-17 14:57:00,53.3,35.6,29.69,South,187,6.0,12.0,51,0.00,,,0.01,Wunderground v.1.15,2013-02-17 20:57:00,
2013-02-17 15:02:00,53.8,36.1,29.68,SW,220,6.0,9.0,51,0.00,,,0.01,Wunderground v.1.15,2013-02-17 21:02:00,
2013-02-17 15:08:00,54.1,35.3,29.68,SSE,161,9.0,18.0,49,0.00,,,0.01,Wunderground v.1.15,2013-02-17 21:08:00,
2013-02-17 15:13:00,54.4,36.1,29.67,ESE,119,10.0,10.0,50,0.00,,,0.01,Wunderground v.1.15,2013-02-17 21:13:00,
2013-02-17 15:19:00,54.6,35.3,29.67,SSW,194,8.0,11.0,48,0.00,,,0.01,Wunderground v.1.15,2013-02-17 21:19:00,
2013-02-17 15:24:00,54.3,35.5,29.67,SSW,195,8.0,12.0,49,0.00,,,0.01,Wunderground v.1.15,2013-02-17 21:24:00,
2013-02-17 15:31:00,54.1,35.9,29.67,ESE,112,8.0,10.0,50,0.00,,,0.01,Wunderground v.1.15,2013-02-17 21:31:00,
2013-02-17 15:37:00,53.8,36.0,29.67,South,189,5.0,18.0,51,0.00,,,0.01,weatherlink.com 1.10,2013-02-17 21:37:00,
2013-02-17 15:43:00,54.0,36.8,29.67,SSE,147,7.0,12.0,52,0.00,,,0.01,Wunderground v.1.15,2013-02-17 21:43:00,
2013-02-17 15:48:00,54.5,36.7,29.66,SSE,153,6.0,12.0,51,0.00,,,0.01,Wunderground v.1.15,2013-02-17 21:48:00,
2013-02-17 15:53:00,55.1,37.3,29.66,South,183,6.0,12.0,51,0.00,,,0.01,Wunderground v.1.15,2013-02-17 21:53:00,
2013-02-17 15:59:00,55.5,37.1,29.66,South,178,7.0,12.0,50,0.00,,,0.01,Wunderground v.1.15,2013-02-17 21:59:00,
2013-02-17 16:04:00,55.9,37.0,29.66,SSE,160,6.0,7.0,49,0.00,,,0.01,Wunderground v.1.15,2013-02-17 22:04:00,
2013-02-17 16:10:00,56.2,36.2,29.65,SE,140,6.0,12.0,47,0.00,,,0.01,Wunderground v.1.15,2013-02-17 22:10:00,
2013-02-17 16:16:00,55.9,36.5,29.65,SSW,204,8.0,12.0,48,0.00,,,0.01,Wunderground v.1.15,2013-02-17 22:16:00,
2013-02-17 16:21:00,55.9,35.9,29.65,ESE,122,7.0,7.0,47,0.00,,,0.01,Wunderground v.1.15,2013-02-17 22:21:00,
2013-02-17 16:27:00,55.8,36.4,29.65,SSE,163,6.0,11.0,48,0.00,,,0.01,Wunderground v.1.15,2013-02-17 22:27:00,
2013-02-17 16:32:00,55.7,36.3,29.64,SW,233,7.0,14.0,48,0.00,,,0.01,Wunderground v.1.15,2013-02-17 22:32:00,
2013-02-17 16:38:00,55.2,36.0,29.64,South,173,5.0,15.0,48,0.00,,,0.01,weatherlink.com 1.10,2013-02-17 22:38:00,
2013-02-17 16:43:00,54.9,36.1,29.64,SE,146,7.0,11.0,49,0.00,,,0.01,Wunderground v.1.15,2013-02-17 22:43:00,
2013-02-17 16:48:00,54.6,35.8,29.64,South,178,5.0,11.0,49,0.00,,,0.01,Wunderground v.1.15,2013-02-17 22:48:00,
2013-02-17 16:54:00,54.2,35.9,29.64,SSE,153,5.0,8.0,50,0.00,,,0.01,Wunderground v.1.15,2013-02-17 22:54:00,
2013-02-17 16:59:00,53.7,35.5,29.64,SSE,168,6.0,13.0,50,0.00,,,0.01,Wunderground v.1.15,2013-02-17 22:59:00,
2013-02-17 17:05:00,53.3,35.6,29.63,SSE,154,6.0,8.0,51,0.00,,,0.01,Wunderground v.1.15,2013-02-17 23:05:00,
2013-02-17 17:10:00,53.0,35.3,29.63,SSE,160,6.0,9.0,51,0.00,,,0.01,Wunderground v.1.15,2013-02-17 23:10:00,
2013-02-17 17:16:00,52.8,35.2,29.63,SE,137,7.0,11.0,51,0.00,,,0.01,Wunderground v.1.15,2013-02-17 23:16:00,
2013-02-17 17:21:00,52.6,35.5,29.63,SSE,154,6.0,9.0,52,0.00,,,0.01,Wunderground v.1.15,2013-02-17 23:21:00,
2013-02-17 17:26:00,52.4,35.3,29.63,SSE,149,5.0,9.0,52,0.00,,,0.01,Wunderground v.1.15,2013-02-17 23:26:00,
2013-02-17 17:34:00,52.1,35.0,29.63,SSE,168,6.0,11.0,52,0.00,,,0.01,Wunderground v.1.15,2013-02-17 23:34:00,
2013-02-17 17:39:00,51.9,35.3,29.62,SSE,149,6.0,11.0,53,0.00,,,0.01,Wunderground v.1.15,2013-02-17 23:39:00,
2013-02-17 17:45:00,51.6,35.0,29.62,South,178,5.0,9.0,53,0.00,,,0.01,Wunderground v.1.15,2013-02-17 23:45:00,
2013-02-17 17:50:00,51.3,34.7,29.62,South,173,5.0,5.0,53,0.00,,,0.01,Wunderground v.1.15,2013-02-17 23:50:00,
2013-02-17 17:55:00,51.0,34.9,29.62,SSE,150,4.0,8.0,54,0.00,,,0.01,Wunderground v.1.15,2013-02-17 23:55:00,
2013-02-17 18:01:00,50.6,34.6,29.63,SE,128,5.0,8.0,54,0.00,,,0.01,Wunderground v.1.15,2013-02-18 00:01:00,
2013-02-17 18:07:00,50.4,34.4,29.63,SSE,166,6.0,11.0,54,0.00,,,0.01,Wunderground v.1.15,2013-02-18 00:07:00,
2013-02-17 18:12:00,50.3,34.3,29.63,SSE,158,5.0,10.0,54,0.00,,,0.01,Wunderground v.1.15,2013-02-18 00:12:00,
2013-02-17 18:18:00,49.9,34.4,29.63,SSE,151,6.0,10.0,55,0.00,,,0.01,Wunderground v.1.15,2013-02-18 00:18:00,
2013-02-17 18:24:00,49.6,34.1,29.62,SSE,149,6.0,8.0,55,0.00,,,0.01,Wunderground v.1.15,2013-02-18 00:24:00,
2013-02-17 18:29:00,49.3,34.3,29.62,East,101,6.0,11.0,56,0.00,,,0.01,Wunderground v.1.15,2013-02-18 00:29:00,
2013-02-17 18:35:00,49.1,34.5,29.63,SE,145,5.0,7.0,57,0.00,,,0.01,Wunderground v.1.15,2013-02-18 00:35:00,
2013-02-17 18:40:00,48.7,34.0,29.63,ESE,114,7.0,12.0,57,0.00,,,0.01,weatherlink.com 1.10,2013-02-18 00:40:00,
2013-02-17 18:46:00,48.4,34.3,29.63,SE,137,4.0,9.0,58,0.00,,,0.01,Wunderground v.1.15,2013-02-18 00:46:00,
2013-02-17 18:51:00,48.1,34.0,29.63,SSE,166,4.0,8.0,58,0.00,,,0.01,Wunderground v.1.15,2013-02-18 00:51:00,
2013-02-17 18:57:00,48.0,34.3,29.62,SE,132,5.0,11.0,59,0.00,,,0.01,Wunderground v.1.15,2013-02-18 00:57:00,
2013-02-17 19:02:00,47.8,34.2,29.62,ESE,114,5.0,6.0,59,0.00,,,0.01,Wunderground v.1.15,2013-02-18 01:02:00,
2013-02-17 19:08:00,47.6,34.4,29.62,South,173,4.0,8.0,60,0.00,,,0.01,Wunderground v.1.15,2013-02-18 01:08:00,
2013-02-17 19:13:00,47.6,34.4,29.62,SSE,156,4.0,6.0,60,0.00,,,0.01,Wunderground v.1.15,2013-02-18 01:13:00,
2013-02-17 19:19:00,47.5,34.3,29.62,SSE,164,5.0,11.0,60,0.00,,,0.01,Wunderground v.1.15,2013-02-18 01:19:00,
2013-02-17 19:24:00,47.4,34.2,29.61,SSE,151,5.0,10.0,60,0.00,,,0.01,Wunderground v.1.15,2013-02-18 01:24:00,
2013-02-17 19:30:00,47.5,34.3,29.61,SE,145,6.0,6.0,60,0.00,,,0.01,Wunderground v.1.15,2013-02-18 01:30:00,
2013-02-17 19:35:00,47.5,34.3,29.61,SE,125,7.0,11.0,60,0.00,,,0.01,Wunderground v.1.15,2013-02-18 01:35:00,
2013-02-17 19:41:00,47.4,34.0,29.61,SSE,164,12.0,17.0,60,0.00,,,0.01,weatherlink.com 1.10,2013-02-18 01:41:00,
2013-02-17 19:46:00,47.5,34.3,29.61,SSE,151,10.0,13.0,60,0.00,,,0.01,Wunderground v.1.15,2013-02-18 01:46:00,
2013-02-17 19:52:00,47.5,34.3,29.60,SSE,150,9.0,11.0,60,0.00,,,0.01,Wunderground v.1.15,2013-02-18 01:52:00,
2013-02-17 19:57:00,47.4,34.2,29.60,SE,136,9.0,13.0,60,0.00,,,0.01,Wunderground v.1.15,2013-02-18 01:57:00,
2013-02-17 20:03:00,47.5,34.3,29.60,SE,146,9.0,12.0,60,0.00,,,0.01,Wunderground v.1.15,2013-02-18 02:03:00,
2013-02-17 20:09:00,47.6,34.4,29.60,SE,134,10.0,14.0,60,0.00,,,0.01,Wunderground v.1.15,2013-02-18 02:09:00,
2013-02-17 20:14:00,47.6,34.4,29.60,SE,140,9.0,15.0,60,0.00,,,0.01,Wunderground v.1.15,2013-02-18 02:14:00,
2013-02-17 20:19:00,47.7,34.5,29.59,SSE,149,10.0,15.0,60,0.00,,,0.01,Wunderground v.1.15,2013-02-18 02:19:00,
2013-02-17 20:24:00,47.7,34.5,29.59,South,183,10.0,13.0,60,0.00,,,0.01,Wunderground v.1.15,2013-02-18 02:24:00,
2013-02-17 20:30:00,47.7,34.5,29.59,SSW,197,10.0,10.0,60,0.00,,,0.01,Wunderground v.1.15,2013-02-18 02:30:00,
2013-02-17 20:35:00,47.7,34.1,29.59,South,173,9.0,10.0,59,0.00,,,0.01,Wunderground v.1.15,2013-02-18 02:35:00,
2013-02-17 20:41:00,47.8,34.0,29.59,South,178,9.0,18.0,59,0.00,,,0.01,weatherlink.com 1.10,2013-02-18 02:41:00,
2013-02-17 20:47:00,47.8,34.2,29.58,SSE,158,9.0,15.0,59,0.00,,,0.01,Wunderground v.1.15,2013-02-18 02:47:00,
2013-02-17 20:52:00,47.9,34.3,29.58,SSE,160,10.0,11.0,59,0.00,,,0.01,Wunderground v.1.15,2013-02-18 02:52:00,
2013-02-17 20:58:00,47.9,34.3,29.58,SSE,156,10.0,13.0,59,0.00,,,0.01,Wunderground v.1.15,2013-02-18 02:58:00,
2013-02-17 21:03:00,47.8,34.2,29.58,SE,125,8.0,13.0,59,0.00,,,0.01,Wunderground v.1.15,2013-02-18 03:03:00,
2013-02-17 21:09:00,47.8,34.2,29.58,SE,127,8.0,15.0,59,0.00,,,0.01,Wunderground v.1.15,2013-02-18 03:09:00,
2013-02-17 21:15:00,47.7,34.1,29.58,SW,229,9.0,15.0,59,0.00,,,0.01,Wunderground v.1.15,2013-02-18 03:15:00,
2013-02-17 21:20:00,47.7,34.1,29.58,SE,142,9.0,13.0,59,0.00,,,0.01,Wunderground v.1.15,2013-02-18 03:20:00,
2013-02-17 21:26:00,47.6,34.0,29.58,SE,141,9.0,14.0,59,0.00,,,0.01,Wunderground v.1.15,2013-02-18 03:26:00,
2013-02-17 21:32:00,47.6,34.0,29.58,SE,131,8.0,13.0,59,0.00,,,0.01,Wunderground v.1.15,2013-02-18 03:32:00,
2013-02-17 21:37:00,47.5,33.9,29.58,SSE,148,8.0,14.0,59,0.00,,,0.01,Wunderground v.1.15,2013-02-18 03:37:00,
2013-02-17 21:43:00,47.5,34.0,29.58,South,173,6.0,17.0,59,0.00,,,0.01,weatherlink.com 1.10,2013-02-18 03:43:00,
2013-02-17 21:49:00,47.3,34.1,29.58,ESE,108,8.0,16.0,60,0.00,,,0.01,Wunderground v.1.15,2013-02-18 03:49:00,
2013-02-17 21:54:00,47.2,34.0,29.58,SSW,194,8.0,13.0,60,0.00,,,0.01,Wunderground v.1.15,2013-02-18 03:54:00,
2013-02-17 22:00:00,47.0,33.8,29.57,SE,139,8.0,8.0,60,0.00,,,0.01,Wunderground v.1.15,2013-02-18 04:00:00,
2013-02-17 22:05:00,46.9,34.1,29.57,ESE,116,7.0,12.0,61,0.00,,,0.01,Wunderground v.1.15,2013-02-18 04:05:00,
2013-02-17 22:10:00,46.7,34.0,29.57,South,183,7.0,7.0,61,0.00,,,0.01,Wunderground v.1.15,2013-02-18 04:10:00,
2013-02-17 22:16:00,46.5,33.8,29.57,SSE,166,7.0,11.0,61,0.00,,,0.01,Wunderground v.1.15,2013-02-18 04:16:00,
2013-02-17 22:22:00,46.3,34.0,29.57,South,189,7.0,12.0,62,0.00,,,0.01,Wunderground v.1.15,2013-02-18 04:22:00,
2013-02-17 22:27:00,46.3,34.0,29.57,SW,216,7.0,12.0,62,0.00,,,0.01,Wunderground v.1.15,2013-02-18 04:27:00,
2013-02-17 22:33:00,46.2,33.9,29.56,South,173,7.0,10.0,62,0.00,,,0.01,Wunderground v.1.15,2013-02-18 04:33:00,
2013-02-17 22:38:00,46.0,33.7,29.56,South,173,6.0,10.0,62,0.00,,,0.01,Wunderground v.1.15,2013-02-18 04:38:00,
2013-02-17 22:44:00,45.8,33.9,29.56,South,173,5.0,10.0,63,0.00,,,0.01,Wunderground v.1.15,2013-02-18 04:44:00,
2013-02-17 22:50:00,45.6,33.7,29.55,South,183,6.0,6.0,63,0.00,,,0.01,Wunderground v.1.15,2013-02-18 04:50:00,
2013-02-17 22:55:00,45.4,33.5,29.55,South,173,6.0,10.0,63,0.00,,,0.01,Wunderground v.1.15,2013-02-18 04:55:00,
2013-02-17 23:00:00,45.2,33.7,29.55,South,187,5.0,5.0,64,0.00,,,0.01,Wunderground v.1.15,2013-02-18 05:00:00,
2013-02-17 23:01:00,45.2,33.3,29.55,SSE,163,5.0,6.0,63,0.00,,,0.01,Wunderground v.1.15,2013-02-18 05:01:00,
2013-02-17 23:06:00,45.1,33.6,29.55,SSW,204,5.0,12.0,64,0.00,,,0.01,Wunderground v.1.15,2013-02-18 05:06:00,
2013-02-17 23:09:00,45.0,33.5,29.55,South,188,5.0,12.0,64,0.00,,,0.01,Wunderground v.1.15,2013-02-18 05:09:00,
2013-02-17 23:12:00,45.0,33.5,29.55,South,173,5.0,8.0,64,0.00,,,0.01,Wunderground v.1.15,2013-02-18 05:12:00,
2013-02-17 23:17:00,44.9,33.5,29.55,SSW,206,4.0,8.0,64,0.00,,,0.01,Wunderground v.1.15,2013-02-18 05:17:00,
2013-02-17 23:22:00,44.6,33.2,29.55,SSW,200,5.0,8.0,64,0.00,,,0.01,Wunderground v.1.15,2013-02-18 05:22:00,
2013-02-17 23:28:00,44.4,33.0,29.55,SW,216,0.0,13.0,65,0.00,,,0.01,weatherlink.com 1.10,2013-02-18 05:28:00,
2013-02-17 23:34:00,44.3,33.3,29.55,SSE,160,5.0,10.0,65,0.00,,,0.01,Wunderground v.1.15,2013-02-18 05:34:00,
2013-02-17 23:39:00,44.2,33.6,29.54,South,178,5.0,10.0,66,0.00,,,0.01,Wunderground v.1.15,2013-02-18 05:39:00,
2013-02-17 23:44:00,44.0,33.0,29.55,SE,138,10.0,12.0,66,0.00,,,0.01,weatherlink.com 1.10,2013-02-18 05:44:00,
2013-02-17 23:50:00,44.0,33.4,29.55,South,190,4.0,4.0,66,0.00,,,0.01,Wunderground v.1.15,2013-02-18 05:50:00,
2013-02-17 23:55:00,43.8,33.2,29.54,SE,143,3.0,6.0,66,0.00,,,0.01,Wunderground v.1.15,2013-02-18 05:55:00,